Lithonia, Georgia
Current Conditions -  °F | °C
As of 8:15 PM on Saturday 22 Nov 2014 (Local Time) from KCVC Reporting Station
Overcast Overcast  
Wind Chill: 55°   Ceiling: 3600
Heat Index: 55°   Visibility: 10mi
Dew Point: 30°   Wind: 7mph
Humidity: 38%   Direction: 90°E
Pressure: 30.27"   Gusts: NA
Location:  33.71°N, 84.11°W
Report Text: KCVC 230115Z AUTO 09006KT 10SM OVC036 13/M01 A3027 RMK AO2
Loading
Personal Weather Stations






























Interactive Weather Map New forecast layout! Learn more

10-Day Weather Forecast

Advertisements
Track Severe Weather on mobile